Time;durP1;ratioP1;P1;durP2;ratioP2;P2;SDS_P1;SDS_P2;PMS_P1;PMS_P2;Temp;Humidity;BMP_temperature;BMP_pressure;BME280_temperature;BME280_humidity;BME280_pressure;Samples;Min_cycle;Max_cycle;Signal;HPM_P1;HPM_P2
2022/09/26 00:01:18;;;;;;;6.53;1.75;;;;;;;16.12;66.94;100858.94;6277843;22;20024;-58
2022/09/26 00:03:48;;;;;;;6.88;2.10;;;;;;;15.73;66.49;100854.84;6277981;22;20470;-58
2022/09/26 00:06:18;;;;;;;7.95;1.80;;;;;;;15.36;63.41;100855.84;6225647;22;20019;-59
2022/09/26 00:08:47;;;;;;;8.25;1.85;;;;;;;15.05;67.77;100851.91;6278944;22;20019;-61
2022/09/26 00:11:17;;;;;;;9.85;1.95;;;;;;;15.42;68.75;100851.75;6278064;22;20022;-61
2022/09/26 00:13:45;;;;;;;8.32;1.60;;;;;;;15.56;67.41;100843.94;6252532;22;20019;-61
2022/09/26 00:16:14;;;;;;;8.88;2.22;;;;;;;15.50;67.57;100848.06;6249397;22;20019;-61
2022/09/26 00:18:41;;;;;;;7.38;2.25;;;;;;;15.38;66.04;100841.63;6278651;22;20019;-61
2022/09/26 00:21:13;;;;;;;5.05;1.70;;;;;;;15.71;68.75;100839.66;6251303;22;20022;-63
2022/09/26 00:23:43;;;;;;;6.50;1.65;;;;;;;15.91;67.47;100840.72;6250113;22;20023;-61
2022/09/26 00:26:11;;;;;;;10.48;2.00;;;;;;;15.79;68.26;100830.44;6277870;22;20408;-62
2022/09/26 00:28:39;;;;;;;6.68;1.77;;;;;;;15.72;67.79;100835.75;6278618;22;20020;-62
2022/09/26 00:31:09;;;;;;;5.85;1.70;;;;;;;15.25;67.90;100818.59;6277022;22;20024;-61
2022/09/26 00:33:37;;;;;;;9.52;2.03;;;;;;;15.33;68.75;100817.69;6250267;22;20023;-61
2022/09/26 00:36:04;;;;;;;5.63;1.90;;;;;;;15.68;68.78;100818.13;6250574;22;20026;-61
2022/09/26 00:38:32;;;;;;;5.75;1.70;;;;;;;15.87;68.47;100818.38;6278663;22;20023;-62
2022/09/26 00:40:59;;;;;;;7.38;1.70;;;;;;;15.67;68.52;100806.22;6276889;22;20016;-61
2022/09/26 00:43:40;;;;;;;8.07;1.80;;;;;;;15.66;68.66;100801.00;6278239;22;20019;-61
2022/09/26 00:46:40;;;;;;;7.95;2.00;;;;;;;15.55;68.68;100799.84;6276566;22;20016;-61
2022/09/26 00:49:31;;;;;;;4.82;1.30;;;;;;;15.88;67.58;100806.13;6249332;22;20015;-62
2022/09/26 00:52:02;;;;;;;4.55;1.80;;;;;;;16.09;67.77;100794.91;6250298;22;20035;-62
2022/09/26 00:54:30;;;;;;;4.90;1.88;;;;;;;15.79;66.95;100797.09;6249641;22;20320;-61
2022/09/26 00:57:03;;;;;;;6.53;2.15;;;;;;;15.84;67.09;100790.50;6249296;22;20149;-62
2022/09/26 00:59:33;;;;;;;6.07;2.03;;;;;;;15.39;67.81;100794.13;6250960;22;20015;-61
2022/09/26 01:02:03;;;;;;;5.72;1.67;;;;;;;15.38;67.55;100786.09;6276566;22;20015;-63
2022/09/26 01:04:33;;;;;;;8.02;1.85;;;;;;;15.15;66.68;100790.47;6277480;22;20428;-61
2022/09/26 01:07:04;;;;;;;5.20;1.50;;;;;;;15.31;70.07;100781.13;6225543;22;20022;-61
2022/09/26 01:09:32;;;;;;;6.40;1.75;;;;;;;15.32;69.83;100780.00;6250060;22;20027;-62
2022/09/26 01:12:00;;;;;;;7.20;1.60;;;;;;;15.61;69.33;100774.28;6276609;22;20026;-61
2022/09/26 01:14:27;;;;;;;7.40;1.67;;;;;;;15.56;67.81;100787.56;6249960;22;20028;-62
2022/09/26 01:16:55;;;;;;;6.35;1.80;;;;;;;15.70;66.04;100785.28;6249758;22;20015;-62
2022/09/26 01:19:31;;;;;;;8.77;1.70;;;;;;;15.93;67.26;100786.47;6250737;22;20019;-61
2022/09/26 01:22:49;;;;;;;3.72;1.52;;;;;;;15.79;68.37;100785.97;6250446;22;20443;-61
2022/09/26 01:25:23;;;;;;;7.68;1.63;;;;;;;15.41;68.59;100783.50;6199478;22;20031;-57
2022/09/26 01:28:05;;;;;;;5.38;1.73;;;;;;;15.64;69.13;100781.09;6250596;22;20022;-56
2022/09/26 01:30:43;;;;;;;5.53;1.80;;;;;;;15.86;67.60;100779.84;6276870;22;20031;-60
2022/09/26 01:33:29;;;;;;;5.43;1.70;;;;;;;15.87;67.38;100773.94;6278243;22;20368;-57
2022/09/26 01:36:12;;;;;;;4.53;1.50;;;;;;;15.81;67.64;100778.13;6223997;22;20016;-58
2022/09/26 01:38:55;;;;;;;6.80;1.80;;;;;;;15.92;68.03;100772.91;6225470;22;20019;-57
2022/09/26 01:41:40;;;;;;;4.40;1.65;;;;;;;15.90;66.11;100767.69;6250942;22;20022;-58
2022/09/26 01:44:28;;;;;;;5.55;1.58;;;;;;;16.00;67.71;100766.41;6277290;22;20463;-58
2022/09/26 01:47:53;;;;;;;5.05;1.60;;;;;;;15.93;66.05;100768.97;6250312;22;20462;-58
2022/09/26 01:50:35;;;;;;;5.30;1.65;;;;;;;15.85;67.52;100756.81;6152937;23;20465;-64
2022/09/26 01:53:09;;;;;;;7.13;2.08;;;;;;;15.14;67.95;100758.31;6129167;23;20064;-59
2022/09/26 01:55:40;;;;;;;6.13;1.30;;;;;;;15.44;69.13;100755.06;6226121;22;20023;-58
2022/09/26 01:58:17;;;;;;;;;;;;;;;15.57;68.66;100747.53;6251291;22;20023;-56
2022/09/26 02:00:46;;;;;;;5.13;1.48;;;;;;;15.66;65.43;100743.50;6247951;22;19916;-57
2022/09/26 02:03:20;;;;;;;5.72;1.80;;;;;;;15.57;65.91;100737.25;6225302;22;20015;-59
2022/09/26 02:05:54;;;;;;;4.75;1.42;;;;;;;15.65;67.63;100727.19;6249470;22;20016;-58
2022/09/26 02:08:26;;;;;;;7.15;1.83;;;;;;;15.88;66.95;100728.34;6250099;22;20423;-59
2022/09/26 02:11:08;;;;;;;6.63;1.75;;;;;;;15.44;68.88;100730.09;6224770;22;20026;-57
2022/09/26 02:13:54;;;;;;;4.15;1.20;;;;;;;15.48;68.67;100717.09;6224424;22;20023;-58
2022/09/26 02:16:29;;;;;;;5.35;1.27;;;;;;;15.59;64.57;100712.72;6250927;22;20016;-57
2022/09/26 02:19:09;;;;;;;5.95;1.35;;;;;;;15.51;67.56;100715.63;6224241;22;20019;-58
2022/09/26 02:21:36;;;;;;;3.30;1.17;;;;;;;15.69;67.11;100705.91;6224333;22;20323;-57
2022/09/26 02:24:03;;;;;;;3.92;1.40;;;;;;;15.24;67.01;100717.06;6225178;22;20574;-57
2022/09/26 02:26:34;;;;;;;4.53;1.17;;;;;;;15.29;66.88;100707.72;6225714;22;20455;-58
2022/09/26 02:29:02;;;;;;;5.15;1.30;;;;;;;14.88;65.76;100705.06;6225096;22;20447;-59
2022/09/26 02:31:35;;;;;;;6.45;1.23;;;;;;;15.28;68.65;100697.75;6250128;22;20022;-58
2022/09/26 02:34:03;;;;;;;3.83;1.20;;;;;;;15.53;66.23;100694.66;6249987;22;20074;-56
2022/09/26 02:36:32;;;;;;;7.15;1.55;;;;;;;15.54;66.66;100690.75;6224119;22;20020;-59
2022/09/26 02:39:00;;;;;;;;;;;;;;;14.68;65.11;100695.63;6260798;22;20015;-58
2022/09/26 02:41:49;;;;;;;5.65;1.45;;;;;;;14.92;69.59;100681.88;6276739;22;19946;-57
2022/09/26 02:44:28;;;;;;;3.33;1.20;;;;;;;15.45;67.96;100676.16;6250069;22;20123;-58
2022/09/26 02:47:02;;;;;;;7.47;1.27;;;;;;;15.55;67.67;100667.38;6224067;22;20022;-58
2022/09/26 02:50:00;;;;;;;5.10;1.52;;;;;;;15.41;64.73;100658.59;6249661;22;20020;-58
2022/09/26 02:52:33;;;;;;;5.13;1.40;;;;;;;15.62;66.13;100642.59;6249902;22;20038;-58
2022/09/26 02:55:20;;;;;;;5.53;1.25;;;;;;;15.59;64.76;100635.00;6249902;22;20023;-60
2022/09/26 02:58:16;;;;;;;3.60;0.90;;;;;;;15.79;65.68;100628.47;6250280;22;20325;-57
2022/09/26 03:00:47;;;;;;;3.63;1.15;;;;;;;15.86;64.98;100633.44;6276105;22;20042;-56
2022/09/26 03:03:21;;;;;;;4.60;1.13;;;;;;;15.88;65.03;100624.75;6248845;22;20024;-59
2022/09/26 03:05:51;;;;;;;6.13;1.30;;;;;;;15.85;64.97;100620.69;6249655;22;20470;-57
2022/09/26 03:08:22;;;;;;;4.15;1.23;;;;;;;15.83;64.37;100613.91;6250734;22;20023;-59
2022/09/26 03:10:50;;;;;;;8.48;1.85;;;;;;;15.66;64.00;100610.22;6223932;22;20022;-61
2022/09/26 03:13:18;;;;;;;3.08;1.35;;;;;;;15.86;64.84;100597.34;6249062;22;20019;-57
2022/09/26 03:15:49;;;;;;;5.15;1.20;;;;;;;15.72;63.22;100596.91;6248853;22;20383;-59
2022/09/26 03:18:19;;;;;;;7.57;1.30;;;;;;;15.91;65.15;100585.16;6249975;22;20455;-57
2022/09/26 03:20:47;;;;;;;4.07;1.20;;;;;;;15.89;64.63;100584.69;6249698;22;20471;-59
2022/09/26 03:23:16;;;;;;;6.88;1.70;;;;;;;15.90;64.60;100580.78;6224043;22;20015;-58
2022/09/26 03:25:43;;;;;;;8.23;1.25;;;;;;;15.91;64.98;100580.41;6249641;22;20373;-59
2022/09/26 03:28:13;;;;;;;;;;;;;;;15.78;64.62;100585.19;6201099;22;20022;-57
2022/09/26 03:30:40;;;;;;;3.83;1.15;;;;;;;15.83;65.59;100581.34;6250214;22;19919;-59
2022/09/26 03:33:24;;;;;;;5.70;1.35;;;;;;;15.74;64.67;100573.16;6251823;22;20020;-59
2022/09/26 03:35:53;;;;;;;5.50;1.35;;;;;;;15.77;65.85;100569.69;6250032;22;20071;-57
2022/09/26 03:38:21;;;;;;;8.60;1.23;;;;;;;15.82;65.51;100570.59;6251628;22;20026;-59
2022/09/26 03:40:57;;;;;;;4.80;1.20;;;;;;;15.93;65.13;100569.78;6250431;22;20019;-56
2022/09/26 03:43:45;;;;;;;4.82;1.10;;;;;;;15.86;64.88;100555.66;6260241;22;20054;-59
2022/09/26 03:46:14;;;;;;;4.07;1.35;;;;;;;15.78;64.28;100549.09;6251376;22;20015;-60
2022/09/26 03:48:42;;;;;;;5.53;1.30;;;;;;;15.64;63.79;100545.88;6278856;22;20016;-58
2022/09/26 03:51:12;;;;;;;3.55;1.30;;;;;;;15.69;65.85;100534.53;6278085;22;20055;-58
2022/09/26 03:53:41;;;;;;;3.97;1.30;;;;;;;15.81;65.30;100533.69;6250278;22;20019;-58
2022/09/26 03:56:14;;;;;;;7.03;1.75;;;;;;;15.58;63.56;100525.09;6249926;22;20055;-59
2022/09/26 03:58:42;;;;;;;5.75;1.50;;;;;;;15.60;65.60;100533.84;6252212;22;20020;-58
2022/09/26 04:01:12;;;;;;;2.85;1.20;;;;;;;15.09;64.01;100539.34;6277683;22;20022;-59
2022/09/26 04:03:41;;;;;;;4.82;1.60;;;;;;;15.31;66.67;100533.31;6251613;22;20641;-57
2022/09/26 04:06:18;;;;;;;4.70;1.10;;;;;;;15.35;65.80;100534.25;6252749;22;20023;-59
2022/09/26 04:08:49;;;;;;;3.38;1.00;;;;;;;15.12;64.46;100522.84;6251290;22;20024;-59
2022/09/26 04:11:18;;;;;;;;;;;;;;;15.18;67.25;100523.41;6250480;22;20344;-59
2022/09/26 04:13:47;;;;;;;3.38;1.00;;;;;;;15.37;67.19;100509.72;6251690;22;19916;-56
2022/09/26 04:16:23;;;;;;;4.38;1.20;;;;;;;15.18;64.50;100504.81;6250919;22;20033;-59
2022/09/26 04:19:07;;;;;;;2.92;1.10;;;;;;;15.17;63.13;100499.56;6250727;22;20016;-57
2022/09/26 04:21:35;;;;;;;6.43;1.05;;;;;;;15.19;64.58;100492.53;6250608;22;20020;-59
2022/09/26 04:24:02;;;;;;;3.88;1.15;;;;;;;15.27;64.64;100486.03;6225677;22;20015;-57
2022/09/26 04:26:30;;;;;;;6.20;1.20;;;;;;;15.51;63.81;100482.44;6224539;22;20030;-59
2022/09/26 04:28:58;;;;;;;5.18;1.20;;;;;;;15.25;60.59;100468.13;6250814;22;20070;-58
2022/09/26 04:31:48;;;;;;;4.15;1.00;;;;;;;15.48;65.26;100472.81;6260973;22;20359;-60
2022/09/26 04:34:19;;;;;;;;;;;;;;;15.69;65.06;100464.31;6251165;22;20018;-58
2022/09/26 04:36:53;;;;;;;3.20;0.98;;;;;;;15.38;65.14;100464.97;6278432;22;20251;-59
2022/09/26 04:39:20;;;;;;;4.43;1.23;;;;;;;15.46;64.82;100455.72;6250576;22;20082;-58
2022/09/26 04:41:48;;;;;;;5.43;1.20;;;;;;;15.57;65.35;100456.84;6249572;22;20023;-57
2022/09/26 04:44:15;;;;;;;8.57;1.23;;;;;;;15.77;64.91;100452.25;6278550;22;20019;-61
2022/09/26 04:46:43;;;;;;;5.25;1.25;;;;;;;15.45;64.71;100440.22;6250350;22;20026;-60
2022/09/26 04:49:11;;;;;;;3.10;0.98;;;;;;;15.63;63.28;100432.41;6261163;22;20020;-59
2022/09/26 04:51:39;;;;;;;2.97;1.10;;;;;;;15.53;63.14;100424.59;6251388;22;20023;-59
2022/09/26 04:54:07;;;;;;;3.92;1.20;;;;;;;15.60;63.76;100425.59;6250040;22;20024;-57
2022/09/26 04:56:40;;;;;;;5.90;1.15;;;;;;;15.42;65.00;100429.03;6250355;22;20354;-60
2022/09/26 04:59:08;;;;;;;3.65;1.02;;;;;;;15.11;60.96;100420.53;6250731;22;20023;-58
2022/09/26 05:01:45;;;;;;;3.78;1.00;;;;;;;14.96;63.05;100430.38;6249679;22;20020;-58
2022/09/26 05:04:17;;;;;;;3.08;0.95;;;;;;;15.19;64.81;100420.41;6250190;22;20125;-58
2022/09/26 05:06:44;;;;;;;5.28;0.93;;;;;;;15.26;65.88;100412.28;6250133;22;20019;-59
2022/09/26 05:09:21;;;;;;;5.55;1.10;;;;;;;15.02;64.32;100415.13;6250257;22;20020;-60
2022/09/26 05:11:52;;;;;;;3.13;1.30;;;;;;;15.15;66.33;100413.91;6250137;22;20016;-60
2022/09/26 05:14:20;;;;;;;3.92;1.20;;;;;;;15.44;64.93;100398.94;6277733;22;20019;-59
2022/09/26 05:16:48;;;;;;;6.47;1.25;;;;;;;15.50;64.91;100387.22;6249442;22;20057;-56
2022/09/26 05:19:16;;;;;;;4.93;1.45;;;;;;;15.38;64.68;100378.94;6249855;22;20020;-58
2022/09/26 05:22:04;;;;;;;6.05;1.42;;;;;;;15.62;64.51;100370.50;6274678;22;20020;-59
2022/09/26 05:27:29;;;;;;;5.80;1.05;;;;;;;15.62;64.05;100361.41;6125879;22;20017;-60
2022/09/26 05:29:56;;;;;;;5.32;1.10;;;;;;;15.74;64.42;100358.53;6225442;22;20039;-57
2022/09/26 05:32:26;;;;;;;3.97;1.30;;;;;;;15.76;64.57;100350.63;6249306;22;20016;-57
2022/09/26 05:34:54;;;;;;;5.15;1.08;;;;;;;15.76;63.61;100351.44;6223586;22;20020;-59
2022/09/26 05:37:23;;;;;;;4.65;1.20;;;;;;;15.79;63.95;100349.94;6247546;22;20323;-58
2022/09/26 05:42:41;;;;;;;3.03;0.85;;;;;;;15.77;62.11;100346.72;6249873;22;20015;-59
2022/09/26 05:45:08;;;;;;;7.30;1.10;;;;;;;15.47;62.90;100346.31;6250265;22;20027;-59
2022/09/26 05:47:36;;;;;;;2.53;1.00;;;;;;;15.67;64.27;100353.59;6250623;22;20019;-60
2022/09/26 05:50:08;;;;;;;5.55;1.52;;;;;;;15.71;61.59;100342.56;6225665;22;20466;-58
2022/09/26 05:52:37;;;;;;;5.05;1.30;;;;;;;15.74;63.58;100337.13;6277482;22;20026;-61
2022/09/26 05:55:06;;;;;;;4.95;1.25;;;;;;;15.65;63.96;100330.94;6250218;22;20016;-61
2022/09/26 05:58:05;;;;;;;;;;;;;;;15.87;64.48;100334.25;6278330;22;20023;-57
2022/09/26 06:00:51;;;;;;;3.85;1.42;;;;;;;15.55;62.98;100316.78;6276493;22;19942;-57
2022/09/26 06:03:19;;;;;;;4.78;1.15;;;;;;;15.84;64.05;100330.22;6249318;22;20023;-57
2022/09/26 06:06:09;;;;;;;4.22;1.20;;;;;;;15.36;61.52;100339.63;6249171;22;20020;-61
2022/09/26 06:08:37;;;;;;;6.53;1.50;;;;;;;15.42;66.71;100334.66;6249763;22;20016;-58
2022/09/26 06:11:23;;;;;;;7.10;2.78;;;;;;;15.50;66.29;100331.72;6276533;22;20024;-59
2022/09/26 06:13:50;;;;;;;;;;;;;;;15.99;69.91;100326.66;6278298;22;20350;-57
2022/09/26 06:16:19;;;;;;;6.32;2.05;;;;;;;16.17;73.93;100333.47;6248033;22;19927;-59
2022/09/26 06:18:49;;;;;;;6.15;1.60;;;;;;;16.09;78.57;100337.22;6246683;22;20016;-57
2022/09/26 06:21:18;;;;;;;11.18;1.65;;;;;;;16.00;80.18;100339.38;6224279;22;20020;-56
2022/09/26 06:23:49;;;;;;;6.75;2.92;;;;;;;16.16;81.85;100342.16;6248570;22;20016;-59
2022/09/26 06:26:21;;;;;;;13.90;6.03;;;;;;;16.22;81.06;100340.69;6223182;22;20020;-58
2022/09/26 06:28:56;;;;;;;13.00;4.35;;;;;;;16.21;79.54;100339.09;6249015;22;20022;-59
2022/09/26 06:31:26;;;;;;;20.42;13.00;;;;;;;16.18;76.77;100337.06;6249058;22;20027;-58
2022/09/26 06:34:17;;;;;;;9.80;3.78;;;;;;;16.03;76.26;100333.09;6268471;22;20039;-59
2022/09/26 06:36:48;;;;;;;5.90;1.98;;;;;;;16.07;76.00;100334.00;6245652;22;20020;-60
2022/09/26 06:39:15;;;;;;;5.55;2.15;;;;;;;15.54;67.86;100332.63;6222931;22;20011;-61
2022/09/26 06:41:44;;;;;;;7.28;1.60;;;;;;;15.83;74.56;100322.25;6257134;22;20455;-58
2022/09/26 06:44:27;;;;;;;11.65;2.25;;;;;;;15.73;71.76;100318.84;6247640;22;20031;-61
2022/09/26 06:47:24;;;;;;;7.50;1.77;;;;;;;15.69;69.50;100317.94;6274184;22;20034;-61
2022/09/26 06:50:11;;;;;;;4.40;1.42;;;;;;;15.84;67.78;100315.53;6273862;22;20024;-60
2022/09/26 06:52:42;;;;;;;8.55;1.60;;;;;;;15.37;65.81;100310.72;6248131;22;20015;-61
2022/09/26 06:55:10;;;;;;;9.23;1.88;;;;;;;15.55;69.76;100306.47;6247383;22;20355;-60
2022/09/26 06:57:40;;;;;;;13.55;1.90;;;;;;;15.70;67.83;100307.66;6274679;22;20015;-61
2022/09/26 07:00:13;;;;;;;9.77;1.60;;;;;;;15.81;62.68;100296.81;6246905;22;20612;-55
2022/09/26 07:03:00;;;;;;;4.00;1.40;;;;;;;15.99;59.75;100298.88;6275451;22;20012;-63
2022/09/26 07:05:46;;;;;;;9.23;1.50;;;;;;;15.57;60.17;100292.22;6254598;22;20337;-60
2022/09/26 07:08:15;;;;;;;8.43;1.90;;;;;;;15.64;62.08;100289.63;6250326;22;20438;-59
2022/09/26 07:10:43;;;;;;;8.68;1.80;;;;;;;15.72;61.33;100280.34;6250277;22;20367;-58
2022/09/26 07:13:23;;;;;;;;;;;;;;;15.62;62.64;100272.56;6250188;22;20046;-63
2022/09/26 07:15:50;;;;;;;7.15;1.60;;;;;;;15.69;62.27;100272.72;6250682;22;19915;-62
2022/09/26 07:18:48;;;;;;;6.13;1.50;;;;;;;15.62;61.75;100261.44;6247628;22;20061;-63
2022/09/26 07:21:20;;;;;;;7.72;1.40;;;;;;;15.77;62.89;100249.53;6260929;22;20035;-59
2022/09/26 07:23:57;;;;;;;5.57;1.10;;;;;;;15.85;62.78;100247.72;6277718;22;20016;-54
2022/09/26 07:26:25;;;;;;;6.43;1.23;;;;;;;15.96;62.38;100234.88;6250710;22;20043;-57
2022/09/26 07:28:52;;;;;;;4.97;1.20;;;;;;;15.91;62.19;100241.53;6249170;22;20471;-57
2022/09/26 07:31:23;;;;;;;;;;;;;;;16.04;61.55;100231.91;6249130;22;20038;-58
2022/09/26 07:34:12;;;;;;;9.77;2.13;;;;;;;16.00;60.83;100225.47;6249365;22;19915;-58
2022/09/26 07:36:46;;;;;;;14.52;3.70;;;;;;;16.00;62.03;100213.56;6222437;22;20131;-62
2022/09/26 07:39:13;;;;;;;9.35;1.40;;;;;;;16.07;62.12;100208.16;6248589;22;20019;-63
2022/09/26 07:41:43;;;;;;;7.03;1.60;;;;;;;15.95;61.04;100206.31;6238737;23;20016;-58
2022/09/26 07:44:13;;;;;;;4.68;1.13;;;;;;;16.07;60.65;100199.84;6189720;23;20578;-62
2022/09/26 07:53:00;;;;;;;6.20;2.50;;;;;;;15.77;62.48;100197.56;6214942;23;20021;-57
2022/09/26 07:55:27;;;;;;;10.88;1.70;;;;;;;15.66;60.78;100193.72;6217365;23;20016;-65
2022/09/26 07:57:58;;;;;;;;;;;;;;;16.02;62.12;100189.81;6240170;23;20032;-63
2022/09/26 08:00:43;;;;;;;12.65;2.03;;;;;;;16.12;61.41;100189.25;6216128;23;19942;-62
2022/09/26 08:03:28;;;;;;;8.38;1.63;;;;;;;16.14;59.05;100194.44;6214203;23;20025;-62
2022/09/26 08:05:59;;;;;;;5.20;1.50;;;;;;;16.02;59.49;100189.00;6214759;23;20021;-63
2022/09/26 08:08:28;;;;;;;8.40;2.10;;;;;;;16.12;60.83;100183.69;6213990;23;20035;-62
2022/09/26 08:10:58;;;;;;;4.47;1.40;;;;;;;16.10;60.90;100186.03;6215640;23;20017;-62
2022/09/26 08:13:47;;;;;;;10.05;1.92;;;;;;;16.02;59.07;100181.47;6214242;23;20021;-62
2022/09/26 08:16:23;;;;;;;7.10;1.50;;;;;;;15.78;58.89;100173.34;6214801;23;20377;-63
2022/09/26 08:18:54;;;;;;;6.78;1.80;;;;;;;15.66;59.73;100174.28;6211914;23;20028;-64
2022/09/26 08:21:24;;;;;;;9.43;1.60;;;;;;;15.83;60.61;100167.53;6214041;23;20023;-61
2022/09/26 08:23:55;;;;;;;10.90;1.50;;;;;;;16.33;60.40;100159.13;6213410;23;20662;-56
2022/09/26 08:26:31;;;;;;;9.18;1.60;;;;;;;16.45;59.54;100161.78;6216888;23;20013;-62
2022/09/26 08:29:08;;;;;;;6.45;1.40;;;;;;;16.56;58.67;100148.13;6214295;23;20017;-56
2022/09/26 08:31:38;;;;;;;5.05;1.60;;;;;;;16.64;57.89;100149.84;6189740;23;20030;-53
2022/09/26 08:34:07;;;;;;;6.25;1.65;;;;;;;16.63;59.32;100142.69;6214980;23;20028;-57
2022/09/26 08:36:35;;;;;;;6.63;1.33;;;;;;;16.82;58.51;100142.66;6189030;23;20020;-56
2022/09/26 08:39:26;;;;;;;4.55;1.45;;;;;;;16.88;57.91;100132.06;6189205;23;20031;-56
2022/09/26 08:42:42;;;;;;;15.35;2.28;;;;;;;17.02;56.56;100127.53;6246270;22;20019;-57
2022/09/26 08:49:23;;;;;;;9.48;2.22;;;;;;;17.07;57.18;100113.31;6258299;22;20020;-57
2022/09/26 08:51:55;;;;;;;9.02;1.40;;;;;;;17.01;55.79;100106.44;6225039;22;20600;-62
2022/09/26 08:54:38;;;;;;;5.32;1.20;;;;;;;16.96;57.10;100112.34;6250340;22;20030;-62
2022/09/26 08:57:13;;;;;;;7.10;1.60;;;;;;;16.98;56.41;100104.38;6249498;22;20026;-63
2022/09/26 08:59:42;;;;;;;10.82;2.47;;;;;;;17.17;57.70;100101.56;6277455;22;20023;-62
2022/09/26 09:02:21;;;;;;;9.20;2.08;;;;;;;17.11;54.33;100103.03;6246438;22;20466;-62
2022/09/26 09:05:03;;;;;;;6.97;1.92;;;;;;;17.09;57.05;100112.94;6249816;22;20340;-62
2022/09/26 09:07:34;;;;;;;9.82;1.38;;;;;;;16.96;55.49;100092.84;6249919;22;20031;-61
2022/09/26 09:10:04;;;;;;;7.63;1.52;;;;;;;16.95;56.10;100095.97;6250981;22;20011;-61
2022/09/26 09:13:16;;;;;;;23.25;6.43;;;;;;;17.12;56.00;100087.16;6239749;22;20015;-64
2022/09/26 09:16:53;;;;;;;9.20;2.67;;;;;;;17.24;55.48;100073.84;6258539;22;20016;-62
2022/09/26 09:20:12;;;;;;;13.95;2.42;;;;;;;17.50;54.88;100068.31;6228788;22;20027;-62
2022/09/26 09:23:33;;;;;;;9.20;1.90;;;;;;;17.56;53.44;100061.25;6256375;22;20027;-63
2022/09/26 09:26:12;;;;;;;15.32;2.28;;;;;;;17.58;54.43;100050.53;6224547;22;20388;-62
2022/09/26 09:29:06;;;;;;;5.72;1.60;;;;;;;17.58;52.64;100052.50;6276136;22;20015;-63
2022/09/26 09:31:40;;;;;;;7.40;1.40;;;;;;;17.50;53.88;100042.44;6248456;22;20020;-62
2022/09/26 09:34:38;;;;;;;7.20;1.80;;;;;;;17.14;53.71;100040.28;6222798;22;20022;-63
2022/09/26 09:37:28;;;;;;;11.63;2.22;;;;;;;17.08;54.29;100016.72;6249269;22;20023;-63
2022/09/26 09:40:25;;;;;;;12.65;1.77;;;;;;;17.37;53.03;100015.97;6246129;22;20755;-62
2022/09/26 09:43:03;;;;;;;6.72;1.30;;;;;;;17.13;53.17;100025.56;6222914;22;20379;-64
2022/09/26 09:45:40;;;;;;;8.98;2.90;;;;;;;17.28;52.45;100007.88;6234197;22;20023;-63
2022/09/26 09:48:12;;;;;;;22.75;2.25;;;;;;;17.24;52.64;100004.28;6225017;22;20015;-62
2022/09/26 09:51:04;;;;;;;6.75;1.90;;;;;;;17.35;52.61;99998.81;6247120;22;20091;-63
2022/09/26 09:53:39;;;;;;;8.05;1.83;;;;;;;17.27;51.94;100000.72;6248692;22;20066;-63
2022/09/26 09:56:30;;;;;;;8.43;1.85;;;;;;;17.61;52.94;100001.59;6249710;22;20031;-63
2022/09/26 09:59:05;;;;;;;7.03;1.75;;;;;;;17.80;53.41;99999.50;6283669;22;20024;-63
2022/09/26 10:01:55;;;;;;;4.75;1.67;;;;;;;17.64;52.71;99996.09;6248797;22;20027;-62
2022/09/26 10:04:45;;;;;;;6.53;1.80;;;;;;;17.48;52.03;99976.00;6221713;22;20427;-63
2022/09/26 10:07:13;;;;;;;7.30;1.90;;;;;;;17.48;53.67;99977.97;6249571;22;20026;-63
2022/09/26 10:09:50;;;;;;;6.95;1.80;;;;;;;17.60;52.43;99975.75;6248018;22;20042;-62
2022/09/26 10:12:38;;;;;;;6.10;2.20;;;;;;;17.24;51.85;99972.84;6277064;22;20019;-62
2022/09/26 10:15:26;;;;;;;7.22;3.13;;;;;;;17.02;53.31;99974.50;6275684;22;20019;-55
2022/09/26 10:18:16;;;;;;;9.32;4.05;;;;;;;17.26;54.51;99968.47;6274336;22;20022;-58
2022/09/26 10:21:11;;;;;;;9.32;2.60;;;;;;;17.54;54.39;99960.56;6256931;22;20451;-63
2022/09/26 10:23:41;;;;;;;6.95;2.47;;;;;;;17.35;53.96;99943.97;6260407;22;20466;-63
2022/09/26 10:26:25;;;;;;;7.28;2.67;;;;;;;17.26;54.15;99934.31;6226746;22;20020;-62
2022/09/26 10:28:59;;;;;;;12.13;3.40;;;;;;;17.55;53.22;99925.97;6247376;22;20382;-61
2022/09/26 10:31:57;;;;;;;9.48;3.20;;;;;;;17.46;53.39;99921.81;6223694;22;20016;-60
2022/09/26 10:34:30;;;;;;;10.25;2.65;;;;;;;17.50;53.44;99904.03;6246767;22;20020;-59
2022/09/26 10:37:23;;;;;;;14.30;5.65;;;;;;;17.50;52.43;99906.00;6249328;22;20024;-59
2022/09/26 10:42:47;;;;;;;18.15;10.88;;;;;;;17.39;54.43;99885.53;6252060;22;20023;-66
2022/09/26 10:45:16;;;;;;;;;;;;;;;17.34;54.97;99886.69;6226180;22;20020;-63
2022/09/26 10:48:05;;;;;;;21.20;10.20;;;;;;;17.44;55.62;99894.38;6278563;22;19921;-63
2022/09/26 10:51:00;;;;;;;23.90;11.45;;;;;;;17.45;55.32;99881.25;6234084;22;20034;-65
2022/09/26 10:53:41;;;;;;;15.68;7.47;;;;;;;17.20;56.22;99875.38;6251098;22;20020;-64
2022/09/26 10:56:15;;;;;;;15.02;6.38;;;;;;;17.28;57.05;99865.94;6250551;22;20020;-63
2022/09/26 10:58:44;;;;;;;10.35;4.85;;;;;;;17.23;57.52;99860.69;6278656;22;20022;-63
2022/09/26 11:01:19;;;;;;;16.65;5.03;;;;;;;17.05;56.82;99865.22;6250362;22;20031;-63
2022/09/26 11:03:48;;;;;;;10.35;4.22;;;;;;;17.16;57.38;99863.38;6250147;22;20483;-63
2022/09/26 11:06:33;;;;;;;12.07;5.18;;;;;;;17.20;56.90;99860.66;6277648;22;20042;-63
2022/09/26 11:09:26;;;;;;;13.02;6.20;;;;;;;17.37;57.51;99855.31;6276810;22;20052;-64
2022/09/26 11:12:38;;;;;;;10.02;3.85;;;;;;;17.26;57.71;99850.81;6277751;22;20032;-64
2022/09/26 11:15:12;;;;;;;7.88;2.95;;;;;;;17.14;58.00;99842.69;6250367;22;20024;-64
2022/09/26 11:17:47;;;;;;;7.90;2.60;;;;;;;17.16;59.10;99838.34;6261425;22;20020;-63
2022/09/26 11:20:35;;;;;;;5.72;2.72;;;;;;;17.21;59.29;99832.44;6250535;22;20015;-63
2022/09/26 11:23:29;;;;;;;9.43;2.95;;;;;;;17.05;60.34;99839.41;6246207;22;20022;-64
2022/09/26 11:26:05;;;;;;;8.55;2.20;;;;;;;17.10;60.87;99828.75;6277473;22;20030;-65
2022/09/26 11:28:44;;;;;;;7.25;2.08;;;;;;;17.05;61.55;99831.81;6251563;22;20020;-64
2022/09/26 11:31:28;;;;;;;21.45;3.33;;;;;;;16.68;62.91;99830.94;6226178;22;20016;-63
2022/09/26 11:34:25;;;;;;;21.88;9.13;;;;;;;16.69;64.04;99827.78;6232519;22;20027;-63
2022/09/26 11:37:37;;;;;;;16.88;4.28;;;;;;;16.78;64.26;99827.50;6250943;22;20022;-64
2022/09/26 11:40:41;;;;;;;10.77;2.55;;;;;;;16.67;65.23;99805.09;6201400;22;20023;-64
2022/09/26 11:43:18;;;;;;;18.48;2.60;;;;;;;16.54;66.32;99797.38;6213213;22;20023;-64
2022/09/26 11:46:13;;;;;;;13.98;2.28;;;;;;;16.50;66.79;99796.50;6248691;22;20024;-63
2022/09/26 11:49:31;;;;;;;14.23;2.83;;;;;;;16.26;68.44;99805.25;6271365;22;20020;-63
2022/09/26 11:52:50;;;;;;;9.40;2.03;;;;;;;16.06;69.81;99775.94;6229944;22;20016;-64
2022/09/26 11:55:23;;;;;;;14.38;2.58;;;;;;;16.09;69.92;99775.22;6276783;22;20022;-64
2022/09/26 11:58:03;;;;;;;9.80;2.40;;;;;;;15.83;70.88;99767.63;6249566;22;20344;-65
2022/09/26 12:00:46;;;;;;;6.73;2.07;;;;;;;15.91;70.70;99765.78;6277765;22;20019;-63
2022/09/26 12:03:22;;;;;;;10.57;2.58;;;;;;;15.98;71.02;99761.16;6251143;22;20243;-63
2022/09/26 12:06:08;;;;;;;6.60;1.95;;;;;;;15.77;71.51;99753.28;6285987;22;20031;-63
2022/09/26 12:08:40;;;;;;;8.13;1.65;;;;;;;15.68;72.73;99757.47;6277041;22;20026;-64
2022/09/26 12:11:36;;;;;;;10.60;3.20;;;;;;;15.66;72.88;99752.28;6251185;22;20012;-64
2022/09/26 12:14:16;;;;;;;10.73;2.58;;;;;;;15.77;72.71;99758.81;6207954;22;20458;-64
2022/09/26 12:16:57;;;;;;;12.98;2.80;;;;;;;15.55;73.75;99756.06;6276981;22;20026;-63
2022/09/26 12:19:41;;;;;;;8.98;2.25;;;;;;;15.51;74.03;99777.38;6277465;22;20019;-63
2022/09/26 12:22:27;;;;;;;6.45;1.45;;;;;;;15.64;73.58;99767.69;6199126;22;20011;-64
2022/09/26 12:25:12;;;;;;;7.38;1.92;;;;;;;15.65;73.91;99774.88;6278023;22;20019;-63
2022/09/26 12:27:59;;;;;;;7.88;2.10;;;;;;;15.52;75.01;99765.09;6252929;22;20478;-64
2022/09/26 12:30:39;;;;;;;5.60;1.55;;;;;;;15.60;75.17;99764.06;6276458;22;20510;-63
2022/09/26 12:33:31;;;;;;;9.30;1.63;;;;;;;15.47;75.62;99762.63;6277960;22;20026;-64
2022/09/26 12:36:09;;;;;;;9.15;1.70;;;;;;;15.55;76.00;99762.38;6249740;22;20034;-64